Main page
METAR-TAF:

METAR-TAF

Airports :

Faro, Portugal

Faro Airport

latitude: 37-01N, longitude: 007-58W, elevation: 7 m

Current weather observation

The report was made 26 minutes ago, at 20:00 UTC
Wind 5 kt from the North
Temperature 11°C
Humidity 54%
Pressure 1029 hPa
Visibility 10 km or more
no clouds below 1500 m and no cumulonimbus

METAR: LPFR 182000Z 36005KT CAVOK 11/02 Q1029

Time: 20:26 (20:26 UTC)

Forecast

The report was made 3 hours and 26 minutes ago, at 17:00 UTC
Forecast valid from 18 at 18 UTC to 19 at 18 UTC
Wind 7 kt from the East
Visibility 10 km or more
no clouds below 1500 m and no cumulonimbus
Becoming
from 18 at 18 UTC to 18 at 21 UTC
Wind 7 kt from the North/Northeast
Becoming
from 19 at 00 UTC to 19 at 02 UTC
Wind 3 kt from variable directions
Becoming
from 19 at 10 UTC to 19 at 12 UTC
Wind 10 kt from the East

TAF: LPFR 181700Z 1818/1918 09007KT CAVOK BECMG 1818/1821 02007KT BECMG 1900/1902 VRB03KT BECMG 1910/1912 09010KT

Weather observations and forecasts of more than 4000 airports (METAR and TAF reports).

The available stations are represented by yellow and red dots on the map.

Hover mouse over dot to see the name of the station.

Then click to see weather observations and forecasts.

To change the map : click on the green buttons with a black cross to zoom in, on the green button with a dash to zoom out, or on the green arrows for adjacent maps.


METAR-TAF: